sensor_id;sensor_type;location;lat;lon;timestamp;pressure;altitude;pressure_sealevel;temperature;humidity
62436;BME280;48480;50.252;18.848;2022-07-18T00:02:00;99662.02;;;13.06;62.88
62436;BME280;48480;50.252;18.848;2022-07-18T00:04:28;99660.14;;;13.04;63.02
62436;BME280;48480;50.252;18.848;2022-07-18T00:06:55;99661.00;;;13.01;63.33
62436;BME280;48480;50.252;18.848;2022-07-18T00:09:22;99660.26;;;13.00;63.38
62436;BME280;48480;50.252;18.848;2022-07-18T00:11:51;99661.08;;;13.00;63.31
62436;BME280;48480;50.252;18.848;2022-07-18T00:14:20;99657.56;;;12.99;63.11
62436;BME280;48480;50.252;18.848;2022-07-18T00:16:47;99651.92;;;12.97;63.15
62436;BME280;48480;50.252;18.848;2022-07-18T00:19:14;99654.00;;;12.96;63.25
62436;BME280;48480;50.252;18.848;2022-07-18T00:21:40;99652.23;;;12.93;63.38
62436;BME280;48480;50.252;18.848;2022-07-18T00:24:07;99651.01;;;12.90;63.64
62436;BME280;48480;50.252;18.848;2022-07-18T00:26:33;99650.33;;;12.89;63.57
62436;BME280;48480;50.252;18.848;2022-07-18T00:29:00;99652.85;;;12.89;63.70
62436;BME280;48480;50.252;18.848;2022-07-18T00:31:27;99650.09;;;12.87;63.69
62436;BME280;48480;50.252;18.848;2022-07-18T00:33:54;99647.80;;;12.83;63.85
62436;BME280;48480;50.252;18.848;2022-07-18T00:36:20;99648.55;;;12.77;64.05
62436;BME280;48480;50.252;18.848;2022-07-18T00:38:47;99652.42;;;12.72;64.23
62436;BME280;48480;50.252;18.848;2022-07-18T00:41:14;99650.42;;;12.68;64.67
62436;BME280;48480;50.252;18.848;2022-07-18T00:43:41;99647.77;;;12.63;64.88
62436;BME280;48480;50.252;18.848;2022-07-18T00:46:08;99647.07;;;12.60;65.14
62436;BME280;48480;50.252;18.848;2022-07-18T00:48:39;99644.89;;;12.57;65.34
62436;BME280;48480;50.252;18.848;2022-07-18T00:51:06;99646.38;;;12.55;65.09
62436;BME280;48480;50.252;18.848;2022-07-18T00:53:33;99646.59;;;12.54;64.86
62436;BME280;48480;50.252;18.848;2022-07-18T00:56:02;99646.27;;;12.54;64.89
62436;BME280;48480;50.252;18.848;2022-07-18T00:58:29;99647.39;;;12.55;64.91
62436;BME280;48480;50.252;18.848;2022-07-18T01:00:57;99643.73;;;12.54;65.30
62436;BME280;48480;50.252;18.848;2022-07-18T01:03:42;99647.52;;;12.52;65.43
62436;BME280;48480;50.252;18.848;2022-07-18T01:06:09;99646.02;;;12.48;65.44
62436;BME280;48480;50.252;18.848;2022-07-18T01:08:36;99636.96;;;12.40;65.44
62436;BME280;48480;50.252;18.848;2022-07-18T01:11:05;99651.10;;;12.44;65.65
62436;BME280;48480;50.252;18.848;2022-07-18T01:13:32;99650.72;;;12.41;66.05
62436;BME280;48480;50.252;18.848;2022-07-18T01:15:59;99644.88;;;12.39;66.11
62436;BME280;48480;50.252;18.848;2022-07-18T01:18:26;99644.05;;;12.38;65.90
62436;BME280;48480;50.252;18.848;2022-07-18T01:20:52;99642.05;;;12.36;65.79
62436;BME280;48480;50.252;18.848;2022-07-18T01:23:19;99641.06;;;12.37;65.93
62436;BME280;48480;50.252;18.848;2022-07-18T01:25:45;99637.96;;;12.36;65.96
62436;BME280;48480;50.252;18.848;2022-07-18T01:28:12;99637.98;;;12.38;65.86
62436;BME280;48480;50.252;18.848;2022-07-18T01:30:39;99638.14;;;12.40;65.75
62436;BME280;48480;50.252;18.848;2022-07-18T01:33:06;99639.11;;;12.43;65.70
62436;BME280;48480;50.252;18.848;2022-07-18T01:35:32;99633.59;;;12.45;65.61
62436;BME280;48480;50.252;18.848;2022-07-18T01:38:00;99638.61;;;12.44;65.23
62436;BME280;48480;50.252;18.848;2022-07-18T01:40:27;99635.04;;;12.40;65.37
62436;BME280;48480;50.252;18.848;2022-07-18T01:42:54;99635.50;;;12.38;65.76
62436;BME280;48480;50.252;18.848;2022-07-18T01:45:21;99630.46;;;12.31;65.90
62436;BME280;48480;50.252;18.848;2022-07-18T01:47:47;99633.99;;;12.26;65.65
62436;BME280;48480;50.252;18.848;2022-07-18T01:50:15;99635.52;;;12.23;65.99
62436;BME280;48480;50.252;18.848;2022-07-18T01:52:41;99636.05;;;12.17;66.38
62436;BME280;48480;50.252;18.848;2022-07-18T01:55:09;99641.25;;;12.17;66.50
62436;BME280;48480;50.252;18.848;2022-07-18T01:57:36;99636.85;;;12.18;66.42
62436;BME280;48480;50.252;18.848;2022-07-18T02:00:05;99637.04;;;12.19;66.23
62436;BME280;48480;50.252;18.848;2022-07-18T02:02:32;99640.46;;;12.19;66.03
62436;BME280;48480;50.252;18.848;2022-07-18T02:04:58;99640.64;;;12.19;66.14
62436;BME280;48480;50.252;18.848;2022-07-18T02:07:34;99640.04;;;12.19;66.13
62436;BME280;48480;50.252;18.848;2022-07-18T02:10:05;99641.03;;;12.15;66.23
62436;BME280;48480;50.252;18.848;2022-07-18T02:12:33;99637.98;;;12.08;66.34
62436;BME280;48480;50.252;18.848;2022-07-18T02:15:00;99638.77;;;12.03;66.58
62436;BME280;48480;50.252;18.848;2022-07-18T02:17:26;99639.94;;;12.01;66.73
62436;BME280;48480;50.252;18.848;2022-07-18T02:19:53;99644.17;;;11.98;66.97
62436;BME280;48480;50.252;18.848;2022-07-18T02:22:19;99646.54;;;11.95;66.84
62436;BME280;48480;50.252;18.848;2022-07-18T02:24:46;99649.41;;;11.93;66.96
62436;BME280;48480;50.252;18.848;2022-07-18T02:27:12;99654.41;;;11.93;67.06
62436;BME280;48480;50.252;18.848;2022-07-18T02:29:39;99654.80;;;11.93;66.86
62436;BME280;48480;50.252;18.848;2022-07-18T02:32:05;99653.81;;;11.95;66.74
62436;BME280;48480;50.252;18.848;2022-07-18T02:34:33;99656.64;;;11.93;66.85
62436;BME280;48480;50.252;18.848;2022-07-18T02:36:59;99655.73;;;11.91;66.71
62436;BME280;48480;50.252;18.848;2022-07-18T02:39:26;99650.86;;;11.92;66.79
62436;BME280;48480;50.252;18.848;2022-07-18T02:41:52;99650.42;;;11.91;66.78
62436;BME280;48480;50.252;18.848;2022-07-18T02:44:19;99650.02;;;11.88;66.80
62436;BME280;48480;50.252;18.848;2022-07-18T02:46:46;99647.32;;;11.85;66.76
62436;BME280;48480;50.252;18.848;2022-07-18T02:49:12;99644.80;;;11.84;66.66
62436;BME280;48480;50.252;18.848;2022-07-18T02:52:06;99646.86;;;11.83;66.62
62436;BME280;48480;50.252;18.848;2022-07-18T02:54:35;99642.60;;;11.81;66.56
62436;BME280;48480;50.252;18.848;2022-07-18T02:57:02;99645.68;;;11.80;66.66
62436;BME280;48480;50.252;18.848;2022-07-18T02:59:29;99646.95;;;11.82;66.52
62436;BME280;48480;50.252;18.848;2022-07-18T03:01:56;99643.60;;;11.82;66.60
62436;BME280;48480;50.252;18.848;2022-07-18T03:04:22;99643.84;;;11.85;66.46
62436;BME280;48480;50.252;18.848;2022-07-18T03:06:50;99648.02;;;11.88;66.45
62436;BME280;48480;50.252;18.848;2022-07-18T03:09:16;99653.52;;;11.92;66.48
62436;BME280;48480;50.252;18.848;2022-07-18T03:11:45;99656.17;;;11.95;66.24
62436;BME280;48480;50.252;18.848;2022-07-18T03:14:11;99656.54;;;11.95;66.44
62436;BME280;48480;50.252;18.848;2022-07-18T03:16:38;99655.23;;;11.97;66.37
62436;BME280;48480;50.252;18.848;2022-07-18T03:19:04;99658.36;;;11.99;66.33
62436;BME280;48480;50.252;18.848;2022-07-18T03:21:31;99658.35;;;12.03;66.44
62436;BME280;48480;50.252;18.848;2022-07-18T03:23:58;99658.27;;;12.04;66.62
62436;BME280;48480;50.252;18.848;2022-07-18T03:26:24;99661.12;;;12.04;66.78
62436;BME280;48480;50.252;18.848;2022-07-18T03:28:50;99665.26;;;12.04;66.59
62436;BME280;48480;50.252;18.848;2022-07-18T03:31:17;99666.35;;;12.07;66.65
62436;BME280;48480;50.252;18.848;2022-07-18T03:33:43;99666.43;;;12.11;66.75
62436;BME280;48480;50.252;18.848;2022-07-18T03:36:10;99668.63;;;12.15;66.75
62436;BME280;48480;50.252;18.848;2022-07-18T03:38:36;99667.00;;;12.18;66.80
62436;BME280;48480;50.252;18.848;2022-07-18T03:41:03;99667.23;;;12.21;66.86
62436;BME280;48480;50.252;18.848;2022-07-18T03:43:30;99668.85;;;12.24;66.88
62436;BME280;48480;50.252;18.848;2022-07-18T03:45:57;99670.61;;;12.28;66.96
62436;BME280;48480;50.252;18.848;2022-07-18T03:48:23;99671.48;;;12.33;67.01
62436;BME280;48480;50.252;18.848;2022-07-18T03:50:50;99676.05;;;12.39;67.16
62436;BME280;48480;50.252;18.848;2022-07-18T03:53:17;99674.77;;;12.44;67.12
62436;BME280;48480;50.252;18.848;2022-07-18T03:55:43;99681.36;;;12.49;66.96
62436;BME280;48480;50.252;18.848;2022-07-18T03:58:10;99676.58;;;12.54;66.85
62436;BME280;48480;50.252;18.848;2022-07-18T04:00:36;99678.50;;;12.61;66.70
62436;BME280;48480;50.252;18.848;2022-07-18T04:03:03;99681.01;;;12.70;66.38
62436;BME280;48480;50.252;18.848;2022-07-18T04:05:29;99684.40;;;12.79;66.37
62436;BME280;48480;50.252;18.848;2022-07-18T04:07:56;99683.77;;;12.86;66.21
62436;BME280;48480;50.252;18.848;2022-07-18T04:10:22;99689.09;;;12.94;65.95
62436;BME280;48480;50.252;18.848;2022-07-18T04:12:51;99688.96;;;13.03;65.99
62436;BME280;48480;50.252;18.848;2022-07-18T04:15:20;99688.29;;;13.12;65.82
62436;BME280;48480;50.252;18.848;2022-07-18T04:17:47;99694.52;;;13.23;65.49
62436;BME280;48480;50.252;18.848;2022-07-18T04:20:15;99697.30;;;13.33;65.50
62436;BME280;48480;50.252;18.848;2022-07-18T04:22:49;99694.73;;;13.43;65.25
62436;BME280;48480;50.252;18.848;2022-07-18T04:25:17;99697.21;;;13.52;65.15
62436;BME280;48480;50.252;18.848;2022-07-18T04:27:45;99697.92;;;13.61;64.87
62436;BME280;48480;50.252;18.848;2022-07-18T04:30:13;99698.19;;;13.71;64.00
62436;BME280;48480;50.252;18.848;2022-07-18T04:32:40;99692.77;;;13.79;63.59
62436;BME280;48480;50.252;18.848;2022-07-18T04:35:08;99691.30;;;13.88;63.21
62436;BME280;48480;50.252;18.848;2022-07-18T04:37:35;99693.77;;;13.97;62.85
62436;BME280;48480;50.252;18.848;2022-07-18T04:40:03;99693.90;;;14.06;62.12
62436;BME280;48480;50.252;18.848;2022-07-18T04:42:29;99691.14;;;14.11;61.77
62436;BME280;48480;50.252;18.848;2022-07-18T04:44:59;99692.98;;;14.18;61.02
62436;BME280;48480;50.252;18.848;2022-07-18T04:47:27;99689.23;;;14.24;60.64
62436;BME280;48480;50.252;18.848;2022-07-18T04:49:54;99686.15;;;14.34;60.29
62436;BME280;48480;50.252;18.848;2022-07-18T04:52:21;99688.14;;;14.53;59.83
62436;BME280;48480;50.252;18.848;2022-07-18T04:54:47;99685.59;;;15.28;58.47
62436;BME280;48480;50.252;18.848;2022-07-18T04:57:14;99674.54;;;16.60;56.11
62436;BME280;48480;50.252;18.848;2022-07-18T04:59:41;99674.81;;;17.25;54.78
62436;BME280;48480;50.252;18.848;2022-07-18T05:02:08;99675.12;;;17.26;54.32
62436;BME280;48480;50.252;18.848;2022-07-18T05:04:36;99669.14;;;17.60;53.76
62436;BME280;48480;50.252;18.848;2022-07-18T05:07:04;99666.59;;;17.95;52.80
62436;BME280;48480;50.252;18.848;2022-07-18T05:09:31;99671.48;;;18.56;51.49
62436;BME280;48480;50.252;18.848;2022-07-18T05:11:57;99667.25;;;19.49;49.69
62436;BME280;48480;50.252;18.848;2022-07-18T05:14:24;99672.13;;;20.77;47.31
62436;BME280;48480;50.252;18.848;2022-07-18T05:16:51;99677.46;;;21.65;45.59
62436;BME280;48480;50.252;18.848;2022-07-18T05:19:17;99673.06;;;22.68;43.16
62436;BME280;48480;50.252;18.848;2022-07-18T05:21:44;99671.05;;;23.62;41.26
62436;BME280;48480;50.252;18.848;2022-07-18T05:24:11;99668.92;;;24.45;39.66
62436;BME280;48480;50.252;18.848;2022-07-18T05:26:37;99664.36;;;25.23;38.02
62436;BME280;48480;50.252;18.848;2022-07-18T05:29:04;99663.27;;;25.87;36.74
62436;BME280;48480;50.252;18.848;2022-07-18T05:31:31;99662.19;;;26.41;35.75
62436;BME280;48480;50.252;18.848;2022-07-18T05:33:57;99669.10;;;26.66;34.91
62436;BME280;48480;50.252;18.848;2022-07-18T05:36:24;99664.68;;;26.41;34.52
62436;BME280;48480;50.252;18.848;2022-07-18T05:38:50;99666.88;;;26.05;34.36
62436;BME280;48480;50.252;18.848;2022-07-18T05:41:17;99662.67;;;25.91;34.39
62436;BME280;48480;50.252;18.848;2022-07-18T05:43:43;99664.33;;;25.96;34.38
62436;BME280;48480;50.252;18.848;2022-07-18T05:46:10;99668.30;;;26.24;34.05
62436;BME280;48480;50.252;18.848;2022-07-18T05:48:36;99666.42;;;26.48;33.44
62436;BME280;48480;50.252;18.848;2022-07-18T05:51:03;99663.75;;;26.71;33.01
62436;BME280;48480;50.252;18.848;2022-07-18T05:53:29;99662.33;;;26.77;32.64
62436;BME280;48480;50.252;18.848;2022-07-18T05:55:56;99659.10;;;26.82;32.25
62436;BME280;48480;50.252;18.848;2022-07-18T05:58:22;99662.17;;;26.69;32.39
62436;BME280;48480;50.252;18.848;2022-07-18T06:00:49;99664.61;;;26.39;32.66
62436;BME280;48480;50.252;18.848;2022-07-18T06:03:15;99663.83;;;26.28;32.72
62436;BME280;48480;50.252;18.848;2022-07-18T06:05:42;99665.40;;;26.27;32.83
62436;BME280;48480;50.252;18.848;2022-07-18T06:08:08;99663.42;;;26.33;32.38
62436;BME280;48480;50.252;18.848;2022-07-18T06:10:35;99663.42;;;26.45;32.14
62436;BME280;48480;50.252;18.848;2022-07-18T06:13:01;99661.39;;;26.69;31.97
62436;BME280;48480;50.252;18.848;2022-07-18T06:15:28;99664.58;;;26.92;31.54
62436;BME280;48480;50.252;18.848;2022-07-18T06:17:55;99667.29;;;27.07;30.77
62436;BME280;48480;50.252;18.848;2022-07-18T06:20:21;99668.05;;;27.21;30.11
62436;BME280;48480;50.252;18.848;2022-07-18T06:22:48;99676.10;;;27.39;29.72
62436;BME280;48480;50.252;18.848;2022-07-18T06:25:14;99679.79;;;27.61;30.07
62436;BME280;48480;50.252;18.848;2022-07-18T06:27:41;99685.68;;;27.80;29.18
62436;BME280;48480;50.252;18.848;2022-07-18T06:30:08;99687.23;;;27.85;29.18
62436;BME280;48480;50.252;18.848;2022-07-18T06:32:36;99687.70;;;28.03;29.48
62436;BME280;48480;50.252;18.848;2022-07-18T06:35:03;99684.64;;;28.22;29.52
62436;BME280;48480;50.252;18.848;2022-07-18T06:37:29;99684.14;;;28.36;29.51
62436;BME280;48480;50.252;18.848;2022-07-18T06:39:56;99682.40;;;28.48;29.17
62436;BME280;48480;50.252;18.848;2022-07-18T06:42:22;99683.34;;;28.62;28.83
62436;BME280;48480;50.252;18.848;2022-07-18T06:44:49;99680.73;;;28.68;28.36
62436;BME280;48480;50.252;18.848;2022-07-18T06:47:15;99677.00;;;28.71;28.27
62436;BME280;48480;50.252;18.848;2022-07-18T06:49:42;99671.46;;;28.74;27.75
62436;BME280;48480;50.252;18.848;2022-07-18T06:52:08;99669.14;;;28.78;27.72
62436;BME280;48480;50.252;18.848;2022-07-18T06:54:38;99669.31;;;28.85;27.59
62436;BME280;48480;50.252;18.848;2022-07-18T06:57:07;99669.59;;;28.88;27.63
62436;BME280;48480;50.252;18.848;2022-07-18T06:59:35;99668.18;;;28.87;27.95
62436;BME280;48480;50.252;18.848;2022-07-18T07:02:03;99671.76;;;29.00;28.17
62436;BME280;48480;50.252;18.848;2022-07-18T07:04:30;99665.50;;;29.18;27.85
62436;BME280;48480;50.252;18.848;2022-07-18T07:06:56;99666.45;;;29.30;27.55
62436;BME280;48480;50.252;18.848;2022-07-18T07:09:23;99662.71;;;29.40;27.70
62436;BME280;48480;50.252;18.848;2022-07-18T07:11:49;99664.48;;;29.51;27.63
62436;BME280;48480;50.252;18.848;2022-07-18T07:14:16;99666.39;;;29.60;27.27
62436;BME280;48480;50.252;18.848;2022-07-18T07:16:42;99662.02;;;29.63;26.93
62436;BME280;48480;50.252;18.848;2022-07-18T07:19:09;99655.08;;;29.56;26.82
62436;BME280;48480;50.252;18.848;2022-07-18T07:21:35;99658.71;;;29.67;26.72
62436;BME280;48480;50.252;18.848;2022-07-18T07:24:02;99655.63;;;29.76;26.67
62436;BME280;48480;50.252;18.848;2022-07-18T07:26:29;99654.28;;;29.69;26.39
62436;BME280;48480;50.252;18.848;2022-07-18T07:28:55;99660.84;;;29.57;26.70
62436;BME280;48480;50.252;18.848;2022-07-18T07:31:22;99665.29;;;29.41;26.79
62436;BME280;48480;50.252;18.848;2022-07-18T07:33:48;99661.11;;;29.23;27.00
62436;BME280;48480;50.252;18.848;2022-07-18T07:36:15;99657.73;;;29.12;26.70
62436;BME280;48480;50.252;18.848;2022-07-18T07:38:42;99655.53;;;29.20;26.37
62436;BME280;48480;50.252;18.848;2022-07-18T07:41:09;99656.40;;;29.39;26.52
62436;BME280;48480;50.252;18.848;2022-07-18T07:43:54;99657.24;;;29.53;26.27
62436;BME280;48480;50.252;18.848;2022-07-18T07:46:30;99652.16;;;29.68;25.41
62436;BME280;48480;50.252;18.848;2022-07-18T07:49:01;99647.80;;;29.76;25.61
62436;BME280;48480;50.252;18.848;2022-07-18T07:51:28;99649.15;;;29.86;25.83
62436;BME280;48480;50.252;18.848;2022-07-18T07:53:58;99641.73;;;29.87;25.33
62436;BME280;48480;50.252;18.848;2022-07-18T07:56:28;99641.30;;;29.78;25.58
62436;BME280;48480;50.252;18.848;2022-07-18T07:59:15;99624.23;;;29.53;25.86
62436;BME280;48480;50.252;18.848;2022-07-18T08:01:42;99635.91;;;29.48;25.79
62436;BME280;48480;50.252;18.848;2022-07-18T08:04:10;99608.09;;;29.20;25.46
62436;BME280;48480;50.252;18.848;2022-07-18T08:06:36;99640.79;;;29.32;25.62
62436;BME280;48480;50.252;18.848;2022-07-18T08:09:03;99641.97;;;29.24;25.96
62436;BME280;48480;50.252;18.848;2022-07-18T08:11:29;99643.45;;;29.26;26.13
62436;BME280;48480;50.252;18.848;2022-07-18T08:13:56;99642.00;;;29.41;25.91
62436;BME280;48480;50.252;18.848;2022-07-18T08:16:23;99639.42;;;29.63;25.85
62436;BME280;48480;50.252;18.848;2022-07-18T08:18:49;99639.36;;;29.81;25.45
62436;BME280;48480;50.252;18.848;2022-07-18T08:21:16;99637.63;;;29.84;25.00
62436;BME280;48480;50.252;18.848;2022-07-18T08:23:42;99638.70;;;29.88;25.31
62436;BME280;48480;50.252;18.848;2022-07-18T08:26:11;99636.52;;;29.90;24.79
62436;BME280;48480;50.252;18.848;2022-07-18T08:28:37;99640.33;;;29.85;24.54
62436;BME280;48480;50.252;18.848;2022-07-18T08:31:04;99640.31;;;29.67;25.13
62436;BME280;48480;50.252;18.848;2022-07-18T08:33:31;99637.81;;;29.65;25.16
62436;BME280;48480;50.252;18.848;2022-07-18T08:35:58;99636.39;;;29.79;24.30
62436;BME280;48480;50.252;18.848;2022-07-18T08:38:24;99636.09;;;29.88;24.35
62436;BME280;48480;50.252;18.848;2022-07-18T08:40:53;99632.96;;;29.97;23.71
62436;BME280;48480;50.252;18.848;2022-07-18T08:43:20;99637.83;;;30.09;24.09
62436;BME280;48480;50.252;18.848;2022-07-18T08:45:47;99637.38;;;30.27;24.05
62436;BME280;48480;50.252;18.848;2022-07-18T08:48:17;99640.66;;;30.24;23.58
62436;BME280;48480;50.252;18.848;2022-07-18T08:50:44;99638.64;;;30.07;23.89
62436;BME280;48480;50.252;18.848;2022-07-18T08:53:12;99640.27;;;29.99;23.84
62436;BME280;48480;50.252;18.848;2022-07-18T08:55:39;99639.19;;;29.97;24.04
62436;BME280;48480;50.252;18.848;2022-07-18T08:58:06;99634.47;;;30.05;23.55
62436;BME280;48480;50.252;18.848;2022-07-18T09:00:34;99643.88;;;30.01;23.94
62436;BME280;48480;50.252;18.848;2022-07-18T09:03:03;99637.64;;;29.90;23.91
62436;BME280;48480;50.252;18.848;2022-07-18T09:05:32;99635.79;;;29.93;24.07
62436;BME280;48480;50.252;18.848;2022-07-18T09:08:15;99629.94;;;29.98;23.96
62436;BME280;48480;50.252;18.848;2022-07-18T09:10:57;99632.98;;;30.05;23.56
62436;BME280;48480;50.252;18.848;2022-07-18T09:13:35;99626.42;;;30.05;23.50
62436;BME280;48480;50.252;18.848;2022-07-18T09:16:08;99629.81;;;30.05;23.65
62436;BME280;48480;50.252;18.848;2022-07-18T09:18:41;99626.51;;;30.10;23.93
62436;BME280;48480;50.252;18.848;2022-07-18T09:21:11;99629.39;;;30.13;23.51
62436;BME280;48480;50.252;18.848;2022-07-18T09:23:41;99622.27;;;30.12;23.23
62436;BME280;48480;50.252;18.848;2022-07-18T09:26:09;99623.64;;;30.15;22.91
62436;BME280;48480;50.252;18.848;2022-07-18T09:31:20;99624.67;;;30.06;23.75
62436;BME280;48480;50.252;18.848;2022-07-18T09:34:31;99622.06;;;30.21;23.35
62436;BME280;48480;50.252;18.848;2022-07-18T09:36:58;99619.52;;;30.27;23.26
62436;BME280;48480;50.252;18.848;2022-07-18T09:39:24;99618.13;;;30.36;23.17
62436;BME280;48480;50.252;18.848;2022-07-18T09:41:51;99616.86;;;30.45;23.33
62436;BME280;48480;50.252;18.848;2022-07-18T09:44:19;99615.61;;;30.52;22.12
62436;BME280;48480;50.252;18.848;2022-07-18T09:47:02;99617.45;;;30.43;22.25
62436;BME280;48480;50.252;18.848;2022-07-18T09:49:30;99614.77;;;30.33;22.24
62436;BME280;48480;50.252;18.848;2022-07-18T09:52:06;99612.36;;;30.29;22.24
62436;BME280;48480;50.252;18.848;2022-07-18T09:54:41;99610.45;;;30.29;22.48
62436;BME280;48480;50.252;18.848;2022-07-18T09:57:08;99611.58;;;30.28;22.61
62436;BME280;48480;50.252;18.848;2022-07-18T09:59:36;99614.64;;;30.24;22.35
62436;BME280;48480;50.252;18.848;2022-07-18T10:02:04;99615.85;;;30.27;23.08
62436;BME280;48480;50.252;18.848;2022-07-18T10:04:31;99613.73;;;30.27;22.67
62436;BME280;48480;50.252;18.848;2022-07-18T10:06:58;99606.55;;;30.26;22.25
62436;BME280;48480;50.252;18.848;2022-07-18T10:09:25;99612.66;;;30.01;22.77
62436;BME280;48480;50.252;18.848;2022-07-18T10:11:53;99613.21;;;29.91;23.21
62436;BME280;48480;50.252;18.848;2022-07-18T10:14:20;99611.22;;;29.82;22.47
62436;BME280;48480;50.252;18.848;2022-07-18T10:16:47;99611.84;;;29.87;22.48
62436;BME280;48480;50.252;18.848;2022-07-18T10:19:14;99610.86;;;30.05;22.95
62436;BME280;48480;50.252;18.848;2022-07-18T10:21:41;99605.61;;;30.27;22.56
62436;BME280;48480;50.252;18.848;2022-07-18T10:24:11;99601.06;;;30.28;22.00
62436;BME280;48480;50.252;18.848;2022-07-18T10:26:38;99598.98;;;30.25;21.70
62436;BME280;48480;50.252;18.848;2022-07-18T10:31:40;99596.76;;;30.54;21.85
62436;BME280;48480;50.252;18.848;2022-07-18T10:34:12;99600.19;;;30.70;22.29
62436;BME280;48480;50.252;18.848;2022-07-18T10:39:23;99601.73;;;30.63;21.74
62436;BME280;48480;50.252;18.848;2022-07-18T10:57:30;99587.34;;;30.88;21.38
62436;BME280;48480;50.252;18.848;2022-07-18T11:03:03;99580.39;;;30.92;21.05
62436;BME280;48480;50.252;18.848;2022-07-18T11:16:03;99568.39;;;30.74;21.68
62436;BME280;48480;50.252;18.848;2022-07-18T11:23:50;99557.39;;;30.54;21.22
62436;BME280;48480;50.252;18.848;2022-07-18T11:26:20;99549.58;;;30.48;20.93
62436;BME280;48480;50.252;18.848;2022-07-18T11:28:48;99548.98;;;30.46;21.40
62436;BME280;48480;50.252;18.848;2022-07-18T11:31:15;99544.89;;;30.31;21.43
62436;BME280;48480;50.252;18.848;2022-07-18T11:33:47;99543.77;;;30.18;21.84
62436;BME280;48480;50.252;18.848;2022-07-18T11:36:17;99544.89;;;30.13;21.89
62436;BME280;48480;50.252;18.848;2022-07-18T11:38:50;99545.00;;;30.02;22.40
62436;BME280;48480;50.252;18.848;2022-07-18T11:41:19;99546.23;;;29.94;22.82
62436;BME280;48480;50.252;18.848;2022-07-18T11:43:48;99544.58;;;30.03;22.14
62436;BME280;48480;50.252;18.848;2022-07-18T11:46:17;99541.78;;;30.10;22.71
62436;BME280;48480;50.252;18.848;2022-07-18T11:48:46;99543.38;;;30.18;23.14
62436;BME280;48480;50.252;18.848;2022-07-18T11:51:18;99542.89;;;30.27;22.70
62436;BME280;48480;50.252;18.848;2022-07-18T11:53:50;99536.77;;;30.35;22.77
62436;BME280;48480;50.252;18.848;2022-07-18T11:56:18;99535.36;;;30.28;22.17
62436;BME280;48480;50.252;18.848;2022-07-18T11:58:46;99529.38;;;30.18;22.26
62436;BME280;48480;50.252;18.848;2022-07-18T12:01:13;99528.77;;;30.12;22.87
62436;BME280;48480;50.252;18.848;2022-07-18T12:03:43;99530.66;;;29.99;22.91
62436;BME280;48480;50.252;18.848;2022-07-18T12:06:19;99532.15;;;29.75;22.54
62436;BME280;48480;50.252;18.848;2022-07-18T12:08:48;99529.32;;;29.63;22.87
62436;BME280;48480;50.252;18.848;2022-07-18T12:11:18;99534.73;;;29.57;23.73
62436;BME280;48480;50.252;18.848;2022-07-18T12:13:58;99530.73;;;29.49;23.76
62436;BME280;48480;50.252;18.848;2022-07-18T12:16:32;99529.54;;;29.50;23.77
62436;BME280;48480;50.252;18.848;2022-07-18T12:19:10;99523.77;;;29.49;23.56
62436;BME280;48480;50.252;18.848;2022-07-18T12:21:50;99520.33;;;29.42;23.75
62436;BME280;48480;50.252;18.848;2022-07-18T12:27:17;99517.96;;;29.20;23.49
62436;BME280;48480;50.252;18.848;2022-07-18T12:29:58;99507.77;;;29.07;23.50
62436;BME280;48480;50.252;18.848;2022-07-18T12:32:41;99507.66;;;28.85;23.73
62436;BME280;48480;50.252;18.848;2022-07-18T12:35:31;99504.99;;;28.78;24.28
62436;BME280;48480;50.252;18.848;2022-07-18T12:38:11;99498.34;;;28.75;24.17
62436;BME280;48480;50.252;18.848;2022-07-18T12:43:07;99498.09;;;28.74;24.41
62436;BME280;48480;50.252;18.848;2022-07-18T12:45:35;99497.66;;;28.71;24.06
62436;BME280;48480;50.252;18.848;2022-07-18T12:48:05;99498.73;;;28.66;24.28
62436;BME280;48480;50.252;18.848;2022-07-18T12:50:32;99495.55;;;28.63;24.33
62436;BME280;48480;50.252;18.848;2022-07-18T12:52:59;99494.06;;;28.63;24.34
62436;BME280;48480;50.252;18.848;2022-07-18T12:55:26;99495.08;;;28.57;24.41
62436;BME280;48480;50.252;18.848;2022-07-18T12:57:53;99493.61;;;28.44;24.38
62436;BME280;48480;50.252;18.848;2022-07-18T13:00:20;99490.68;;;28.39;24.47
62436;BME280;48480;50.252;18.848;2022-07-18T13:02:46;99490.05;;;28.31;25.16
62436;BME280;48480;50.252;18.848;2022-07-18T13:05:13;99488.35;;;28.35;25.73
62436;BME280;48480;50.252;18.848;2022-07-18T13:07:40;99481.36;;;28.39;25.32
62436;BME280;48480;50.252;18.848;2022-07-18T13:10:07;99484.92;;;28.39;25.02
62436;BME280;48480;50.252;18.848;2022-07-18T13:12:33;99479.23;;;28.34;25.12
62436;BME280;48480;50.252;18.848;2022-07-18T13:15:00;99482.14;;;28.33;25.34
62436;BME280;48480;50.252;18.848;2022-07-18T13:17:27;99479.84;;;28.35;25.65
62436;BME280;48480;50.252;18.848;2022-07-18T13:19:53;99478.77;;;28.30;25.18
62436;BME280;48480;50.252;18.848;2022-07-18T13:22:20;99474.56;;;28.13;25.11
62436;BME280;48480;50.252;18.848;2022-07-18T13:24:48;99472.10;;;28.05;25.55
62436;BME280;48480;50.252;18.848;2022-07-18T13:27:15;99471.92;;;28.08;25.99
62436;BME280;48480;50.252;18.848;2022-07-18T13:29:41;99470.90;;;28.15;26.08
62436;BME280;48480;50.252;18.848;2022-07-18T13:32:08;99470.02;;;28.19;25.67
62436;BME280;48480;50.252;18.848;2022-07-18T13:34:35;99468.84;;;28.17;25.10
62436;BME280;48480;50.252;18.848;2022-07-18T13:37:02;99470.04;;;28.15;24.75
62436;BME280;48480;50.252;18.848;2022-07-18T13:39:28;99464.51;;;28.18;24.91
62436;BME280;48480;50.252;18.848;2022-07-18T13:41:55;99464.17;;;28.26;25.28
62436;BME280;48480;50.252;18.848;2022-07-18T13:44:21;99457.48;;;28.33;25.20